createdAt,value
2022-08-21T00:00:52.893Z,15.93
2022-08-21T00:01:52.962Z,15.92
2022-08-21T00:02:52.837Z,15.89
2022-08-21T00:03:55.640Z,15.85
2022-08-21T00:04:57.279Z,15.84
2022-08-21T00:05:53.864Z,15.82
2022-08-21T00:06:52.787Z,15.81
2022-08-21T00:07:52.777Z,15.85
2022-08-21T00:08:52.826Z,15.85
2022-08-21T00:09:52.747Z,15.85
2022-08-21T00:10:52.828Z,15.82
2022-08-21T00:11:52.725Z,15.81
2022-08-21T00:12:52.707Z,15.78
2022-08-21T00:13:52.746Z,15.68
2022-08-21T00:14:54.798Z,15.64
2022-08-21T00:15:52.689Z,15.63
2022-08-21T00:16:52.666Z,15.66
2022-08-21T00:17:52.657Z,15.64
2022-08-21T00:18:52.647Z,15.59
2022-08-21T00:19:52.656Z,15.61
2022-08-21T00:20:52.641Z,15.66
2022-08-21T00:21:52.606Z,15.70
2022-08-21T00:22:52.580Z,15.68
2022-08-21T00:23:52.578Z,15.64
2022-08-21T00:24:52.572Z,15.63
2022-08-21T00:25:52.578Z,15.67
2022-08-21T00:26:56.451Z,15.67
2022-08-21T00:27:53.226Z,15.67
2022-08-21T00:28:52.560Z,15.63
2022-08-21T00:29:52.486Z,15.63
2022-08-21T00:30:52.471Z,15.56
2022-08-21T00:31:52.549Z,15.49
2022-08-21T00:32:52.482Z,15.51
2022-08-21T00:33:52.490Z,15.51
2022-08-21T00:34:52.414Z,15.49
2022-08-21T00:35:52.411Z,15.51
2022-08-21T00:36:52.404Z,15.45
2022-08-21T00:37:52.386Z,15.41
2022-08-21T00:38:52.371Z,15.38
2022-08-21T00:39:52.430Z,15.38
2022-08-21T00:40:52.353Z,15.42
2022-08-21T00:41:52.329Z,15.45
2022-08-21T00:42:53.777Z,15.43
2022-08-21T00:43:52.320Z,15.39
2022-08-21T00:44:52.291Z,15.38
2022-08-21T00:45:52.291Z,15.38
2022-08-21T00:46:52.262Z,15.38
2022-08-21T00:47:52.296Z,15.33
2022-08-21T00:48:52.242Z,15.35
2022-08-21T00:49:52.301Z,15.38
2022-08-21T00:50:52.238Z,15.38
2022-08-21T00:51:52.275Z,15.38
2022-08-21T00:52:52.205Z,15.33
2022-08-21T00:53:53.672Z,15.31
2022-08-21T00:54:52.156Z,15.33
2022-08-21T00:55:52.165Z,15.36
2022-08-21T00:56:52.156Z,15.35
2022-08-21T00:57:56.040Z,15.35
2022-08-21T00:58:54.891Z,15.35
2022-08-21T00:59:52.131Z,15.36
2022-08-21T01:00:52.216Z,15.33
2022-08-21T01:01:52.232Z,15.38
2022-08-21T01:02:52.076Z,15.43
2022-08-21T01:03:52.109Z,15.46
2022-08-21T01:04:52.066Z,15.49
2022-08-21T01:05:52.016Z,15.52
2022-08-21T01:06:52.039Z,15.49
2022-08-21T01:07:52.054Z,15.49
2022-08-21T01:08:52.694Z,15.46
2022-08-21T01:09:52.004Z,15.43
2022-08-21T01:10:54.519Z,15.42
2022-08-21T01:11:52.310Z,15.43
2022-08-21T01:12:51.913Z,15.41
2022-08-21T01:13:51.951Z,15.36
2022-08-21T01:14:51.896Z,15.36
2022-08-21T01:15:51.879Z,15.30
2022-08-21T01:16:51.884Z,15.26
2022-08-21T01:17:51.899Z,15.23
2022-08-21T01:18:51.893Z,15.17
2022-08-21T01:19:51.824Z,15.15
2022-08-21T01:20:51.813Z,15.12
2022-08-21T01:21:51.803Z,15.13
2022-08-21T01:22:51.880Z,15.11
2022-08-21T01:23:51.872Z,15.12
2022-08-21T01:24:51.767Z,15.17
2022-08-21T01:25:51.749Z,15.20
2022-08-21T01:26:51.748Z,15.21
2022-08-21T01:27:51.733Z,15.20
2022-08-21T01:28:51.746Z,15.19
2022-08-21T01:29:51.732Z,15.15
2022-08-21T01:30:51.678Z,15.12
2022-08-21T01:31:51.664Z,15.13
2022-08-21T01:32:51.726Z,15.15
2022-08-21T01:33:51.644Z,15.11
2022-08-21T01:34:51.656Z,15.09
2022-08-21T01:35:51.645Z,15.09
2022-08-21T01:36:51.599Z,15.09
2022-08-21T01:37:51.574Z,15.09
2022-08-21T01:38:51.632Z,15.09
2022-08-21T01:39:51.610Z,15.11
2022-08-21T01:40:51.543Z,15.09
2022-08-21T01:41:51.531Z,15.09
2022-08-21T01:42:51.534Z,15.05
2022-08-21T01:43:51.515Z,15.06
2022-08-21T01:44:51.521Z,15.03
2022-08-21T01:45:51.498Z,15.03
2022-08-21T01:46:51.469Z,15.01
2022-08-21T01:47:51.461Z,15.03
2022-08-21T01:48:51.457Z,15.06
2022-08-21T01:49:51.436Z,15.08
2022-08-21T01:50:52.854Z,15.02
2022-08-21T01:51:52.489Z,15.03
2022-08-21T01:52:51.473Z,15.01
2022-08-21T01:53:51.374Z,15.01
2022-08-21T01:54:55.534Z,14.99
2022-08-21T01:55:51.367Z,15.03
2022-08-21T01:56:51.361Z,15.01
2022-08-21T01:57:51.323Z,14.98
2022-08-21T01:58:51.337Z,14.99
2022-08-21T01:59:51.341Z,14.98
2022-08-21T02:00:51.297Z,14.95
2022-08-21T02:01:51.258Z,14.99
2022-08-21T02:02:55.260Z,15.03
2022-08-21T02:03:51.260Z,15.08
2022-08-21T02:04:51.220Z,15.08
2022-08-21T02:05:51.899Z,15.09
2022-08-21T02:06:51.220Z,15.06
2022-08-21T02:07:51.193Z,15.03
2022-08-21T02:08:51.208Z,15.01
2022-08-21T02:09:51.150Z,15.01
2022-08-21T02:10:51.208Z,15.03
2022-08-21T02:11:51.124Z,15.05
2022-08-21T02:12:51.170Z,15.02
2022-08-21T02:13:51.181Z,15.01
2022-08-21T02:14:51.109Z,14.95
2022-08-21T02:15:51.075Z,14.94
2022-08-21T02:16:51.043Z,14.91
2022-08-21T02:17:52.136Z,14.91
2022-08-21T02:18:51.037Z,14.86
2022-08-21T02:19:51.011Z,14.81
2022-08-21T02:20:56.101Z,14.75
2022-08-21T02:21:52.018Z,14.78
2022-08-21T02:22:51.051Z,14.75
2022-08-21T02:23:50.975Z,14.71
2022-08-21T02:24:54.967Z,14.71
2022-08-21T02:25:50.943Z,14.75
2022-08-21T02:26:50.988Z,14.72
2022-08-21T02:27:50.909Z,14.75
2022-08-21T02:28:50.917Z,14.80
2022-08-21T02:29:50.896Z,14.80
2022-08-21T02:30:50.905Z,14.81
2022-08-21T02:31:50.874Z,14.78
2022-08-21T02:32:50.840Z,14.75
2022-08-21T02:33:50.850Z,14.74
2022-08-21T02:34:50.831Z,14.80
2022-08-21T02:35:50.815Z,14.81
2022-08-21T02:36:59.472Z,14.83
2022-08-21T02:37:51.810Z,14.80
2022-08-21T02:38:50.768Z,14.75
2022-08-21T02:39:50.854Z,14.75
2022-08-21T02:40:50.929Z,14.74
2022-08-21T02:41:50.800Z,14.75
2022-08-21T02:42:50.705Z,14.80
2022-08-21T02:43:50.708Z,14.78
2022-08-21T02:44:50.679Z,14.74
2022-08-21T02:45:50.678Z,14.75
2022-08-21T02:46:50.649Z,14.80
2022-08-21T02:47:50.635Z,14.80
2022-08-21T02:48:50.636Z,14.81
2022-08-21T02:49:50.623Z,14.80
2022-08-21T02:50:50.600Z,14.78
2022-08-21T02:51:50.577Z,14.78
2022-08-21T02:52:51.795Z,14.74
2022-08-21T02:53:50.572Z,14.74
2022-08-21T02:54:50.558Z,14.68
2022-08-21T02:55:50.538Z,14.69
2022-08-21T02:56:50.511Z,14.71
2022-08-21T02:57:50.502Z,14.74
2022-08-21T02:58:50.528Z,14.75
2022-08-21T02:59:50.499Z,14.74
2022-08-21T03:00:51.180Z,14.71
2022-08-21T03:01:50.559Z,14.69
2022-08-21T03:02:50.499Z,14.68
2022-08-21T03:03:50.518Z,14.69
2022-08-21T03:04:50.408Z,14.65
2022-08-21T03:05:50.422Z,14.68
2022-08-21T03:06:50.409Z,14.68
2022-08-21T03:07:50.475Z,14.68
2022-08-21T03:08:50.410Z,14.67
2022-08-21T03:09:55.311Z,14.68
2022-08-21T03:10:51.339Z,14.67
2022-08-21T03:11:50.327Z,14.65
2022-08-21T03:12:50.407Z,14.68
2022-08-21T03:13:50.295Z,14.67
2022-08-21T03:14:50.304Z,14.67
2022-08-21T03:15:50.276Z,14.67
2022-08-21T03:16:50.240Z,14.62
2022-08-21T03:17:50.241Z,14.62
2022-08-21T03:18:50.220Z,14.60
2022-08-21T03:19:50.221Z,14.57
2022-08-21T03:20:50.279Z,14.56
2022-08-21T03:21:50.207Z,14.56
2022-08-21T03:22:56.553Z,14.56
2022-08-21T03:23:51.189Z,14.54
2022-08-21T03:24:50.234Z,14.54
2022-08-21T03:25:50.126Z,14.54
2022-08-21T03:26:50.119Z,14.56
2022-08-21T03:27:50.189Z,14.61
2022-08-21T03:28:50.090Z,14.57
2022-08-21T03:29:50.102Z,14.56
2022-08-21T03:30:50.064Z,14.56
2022-08-21T03:31:50.076Z,14.56
2022-08-21T03:32:50.071Z,14.56
2022-08-21T03:33:50.023Z,14.57
2022-08-21T03:34:50.159Z,14.56
2022-08-21T03:35:50.019Z,14.57
2022-08-21T03:36:49.979Z,14.54
2022-08-21T03:37:49.988Z,14.53
2022-08-21T03:38:49.996Z,14.53
2022-08-21T03:39:49.990Z,14.52
2022-08-21T03:40:49.985Z,14.50
2022-08-21T03:41:49.919Z,14.50
2022-08-21T03:42:49.946Z,14.46
2022-08-21T03:43:49.893Z,14.47
2022-08-21T03:44:49.893Z,14.49
2022-08-21T03:45:49.866Z,14.49
2022-08-21T03:46:49.882Z,14.47
2022-08-21T03:47:49.863Z,14.50
2022-08-21T03:48:49.820Z,14.49
2022-08-21T03:49:49.832Z,14.46
2022-08-21T03:50:49.821Z,14.46
2022-08-21T03:51:49.848Z,14.44
2022-08-21T03:52:50.787Z,14.43
2022-08-21T03:53:53.733Z,14.39
2022-08-21T03:54:49.947Z,14.37
2022-08-21T03:55:49.725Z,14.34
2022-08-21T03:56:49.778Z,14.32
2022-08-21T03:57:49.753Z,14.34
2022-08-21T03:58:49.720Z,14.34
2022-08-21T03:59:49.961Z,14.38
2022-08-21T04:00:49.690Z,14.34
2022-08-21T04:01:49.857Z,14.34
2022-08-21T04:02:49.667Z,14.34
2022-08-21T04:03:49.700Z,14.37
2022-08-21T04:04:49.911Z,14.35
2022-08-21T04:05:49.593Z,14.35
2022-08-21T04:06:49.593Z,14.34
2022-08-21T04:07:49.626Z,14.37
2022-08-21T04:08:49.713Z,14.39
2022-08-21T04:09:49.550Z,14.42
2022-08-21T04:10:49.633Z,14.43
2022-08-21T04:11:49.545Z,14.39
2022-08-21T04:12:49.505Z,14.34
2022-08-21T04:13:49.486Z,14.34
2022-08-21T04:14:49.502Z,14.32
2022-08-21T04:15:49.468Z,14.34
2022-08-21T04:16:49.445Z,14.32
2022-08-21T04:17:49.448Z,14.34
2022-08-21T04:18:49.499Z,14.31
2022-08-21T04:19:53.648Z,14.31
2022-08-21T04:20:49.958Z,14.31
2022-08-21T04:21:49.481Z,14.31
2022-08-21T04:22:49.390Z,14.32
2022-08-21T04:23:49.394Z,14.38
2022-08-21T04:24:49.359Z,14.42
2022-08-21T04:25:49.469Z,14.47
2022-08-21T04:26:49.318Z,14.52
2022-08-21T04:27:49.324Z,14.56
2022-08-21T04:28:49.336Z,14.54
2022-08-21T04:29:49.292Z,14.57
2022-08-21T04:30:49.273Z,14.56
2022-08-21T04:31:49.256Z,14.61
2022-08-21T04:32:49.823Z,14.62
2022-08-21T04:33:49.216Z,14.69
2022-08-21T04:34:49.239Z,14.69
2022-08-21T04:35:49.204Z,14.72
2022-08-21T04:36:49.220Z,14.78
2022-08-21T04:37:49.173Z,14.81
2022-08-21T04:38:49.221Z,14.78
2022-08-21T04:39:53.345Z,14.83
2022-08-21T04:40:49.156Z,14.84
2022-08-21T04:41:49.114Z,14.86
2022-08-21T04:42:49.272Z,14.83
2022-08-21T04:43:49.086Z,14.84
2022-08-21T04:44:49.132Z,14.86
2022-08-21T04:45:49.147Z,14.86
2022-08-21T04:46:49.829Z,14.86
2022-08-21T04:47:52.688Z,14.90
2022-08-21T04:48:49.023Z,14.93
2022-08-21T04:49:49.029Z,14.95
2022-08-21T04:50:48.988Z,15.01
2022-08-21T04:51:48.975Z,15.02
2022-08-21T04:52:49.079Z,15.02
2022-08-21T04:53:48.945Z,15.01
2022-08-21T04:54:51.984Z,15.01
2022-08-21T04:55:49.925Z,15.05
2022-08-21T04:56:48.928Z,15.02
2022-08-21T04:57:49.495Z,15.05
2022-08-21T04:58:48.898Z,15.03
2022-08-21T04:59:48.885Z,15.02
2022-08-21T05:00:48.873Z,15.03
2022-08-21T05:01:48.899Z,15.09
2022-08-21T05:02:48.865Z,15.09
2022-08-21T05:03:48.814Z,15.08
2022-08-21T05:04:48.819Z,15.09
2022-08-21T05:05:48.807Z,15.11
2022-08-21T05:06:48.791Z,15.11
2022-08-21T05:07:48.860Z,15.13
2022-08-21T05:08:48.749Z,15.13
2022-08-21T05:09:48.745Z,15.13
2022-08-21T05:10:48.750Z,15.19
2022-08-21T05:11:48.777Z,15.20
2022-08-21T05:12:48.700Z,15.23
2022-08-21T05:13:48.683Z,15.27
2022-08-21T05:14:49.693Z,15.33
2022-08-21T05:15:52.518Z,15.38
2022-08-21T05:16:48.669Z,15.45
2022-08-21T05:17:53.778Z,15.49
2022-08-21T05:18:49.626Z,15.57
2022-08-21T05:19:48.611Z,15.60
2022-08-21T05:20:48.614Z,15.61
2022-08-21T05:21:48.604Z,15.61
2022-08-21T05:22:48.569Z,15.63
2022-08-21T05:23:48.824Z,15.67
2022-08-21T05:24:48.554Z,15.67
2022-08-21T05:25:48.525Z,15.70
2022-08-21T05:26:49.194Z,15.76
2022-08-21T05:27:48.501Z,15.81
2022-08-21T05:28:48.485Z,15.85
2022-08-21T05:29:48.605Z,15.89
2022-08-21T05:30:48.485Z,15.92
2022-08-21T05:31:48.507Z,15.96
2022-08-21T05:32:52.177Z,15.97
2022-08-21T05:33:49.206Z,16.01
2022-08-21T05:34:48.436Z,16.03
2022-08-21T05:35:48.403Z,16.00
2022-08-21T05:36:48.427Z,16.00
2022-08-21T05:37:48.366Z,16.01
2022-08-21T05:38:48.371Z,16.01
2022-08-21T05:40:05.410Z,16.04
2022-08-21T05:40:50.112Z,16.03
2022-08-21T05:41:48.324Z,16.06
2022-08-21T05:42:54.297Z,16.06
2022-08-21T05:43:49.279Z,16.12
2022-08-21T05:44:48.781Z,16.15
2022-08-21T05:45:48.345Z,16.18
2022-08-21T05:46:48.348Z,16.23
2022-08-21T05:47:48.275Z,16.22
2022-08-21T05:48:48.289Z,16.23
2022-08-21T05:49:48.225Z,16.31
2022-08-21T05:50:48.227Z,16.35
2022-08-21T05:51:48.190Z,16.42
2022-08-21T05:52:48.186Z,16.44
2022-08-21T05:53:48.161Z,16.48
2022-08-21T05:54:48.157Z,16.44
2022-08-21T05:55:48.139Z,16.48
2022-08-21T05:56:48.165Z,16.58
2022-08-21T05:57:48.204Z,16.65
2022-08-21T05:58:48.101Z,16.70
2022-08-21T05:59:48.313Z,16.73
2022-08-21T06:00:48.067Z,16.80
2022-08-21T06:01:48.099Z,16.86
2022-08-21T06:02:48.055Z,16.93
2022-08-21T06:03:48.082Z,17.04
2022-08-21T06:04:48.032Z,17.13
2022-08-21T06:05:48.022Z,17.20
2022-08-21T06:06:48.011Z,17.29
2022-08-21T06:07:47.968Z,17.30
2022-08-21T06:08:48.012Z,17.28
2022-08-21T06:09:47.963Z,17.32
2022-08-21T06:10:47.961Z,17.29
2022-08-21T06:11:47.946Z,17.29
2022-08-21T06:12:47.920Z,17.33
2022-08-21T06:13:47.899Z,17.41
2022-08-21T06:14:47.906Z,17.48
2022-08-21T06:15:47.994Z,17.53
2022-08-21T06:16:47.855Z,17.57
2022-08-21T06:17:47.843Z,17.63
2022-08-21T06:18:48.018Z,17.71
2022-08-21T06:19:47.842Z,17.73
2022-08-21T06:20:47.826Z,17.74
2022-08-21T06:21:47.902Z,17.81
2022-08-21T06:22:47.828Z,17.85
2022-08-21T06:23:47.849Z,17.87
2022-08-21T06:24:47.767Z,17.89
2022-08-21T06:25:47.742Z,17.88
2022-08-21T06:26:47.764Z,17.85
2022-08-21T06:27:47.799Z,17.84
2022-08-21T06:28:47.737Z,17.82
2022-08-21T06:29:47.738Z,17.76
2022-08-21T06:30:47.708Z,17.76
2022-08-21T06:31:47.659Z,17.79
2022-08-21T06:32:47.654Z,17.79
2022-08-21T06:33:47.657Z,17.78
2022-08-21T06:34:47.769Z,17.79
2022-08-21T06:35:47.592Z,17.79
2022-08-21T06:36:47.614Z,17.79
2022-08-21T06:37:47.588Z,17.84
2022-08-21T06:38:51.018Z,17.88
2022-08-21T06:39:47.907Z,17.94
2022-08-21T06:40:48.175Z,18.02
2022-08-21T06:41:47.615Z,18.07
2022-08-21T06:42:47.558Z,18.12
2022-08-21T06:43:47.493Z,18.12
2022-08-21T06:44:47.587Z,18.13
2022-08-21T06:45:47.451Z,18.21
2022-08-21T06:46:48.262Z,18.25
2022-08-21T06:47:47.456Z,18.29
2022-08-21T06:48:51.270Z,18.33
2022-08-21T06:49:47.487Z,18.36
2022-08-21T06:50:47.545Z,18.37
2022-08-21T06:51:47.459Z,18.42
2022-08-21T06:52:47.472Z,18.40
2022-08-21T06:53:51.550Z,18.42
2022-08-21T06:54:47.343Z,18.42
2022-08-21T06:55:47.412Z,18.46
2022-08-21T06:56:47.312Z,18.47
2022-08-21T06:57:58.856Z,18.52
2022-08-21T06:58:47.312Z,18.55
2022-08-21T06:59:47.287Z,18.59
2022-08-21T07:00:47.264Z,18.59
2022-08-21T07:01:47.327Z,18.65
2022-08-21T07:02:47.295Z,18.68
2022-08-21T07:03:47.284Z,18.73
2022-08-21T07:04:47.211Z,18.73
2022-08-21T07:05:47.206Z,18.74
2022-08-21T07:06:47.179Z,18.74
2022-08-21T07:07:47.210Z,18.82
2022-08-21T07:08:47.516Z,18.84
2022-08-21T07:09:47.146Z,18.87
2022-08-21T07:10:47.128Z,18.91
2022-08-21T07:11:47.719Z,18.95
2022-08-21T07:12:47.132Z,18.99
2022-08-21T07:13:47.101Z,19.06
2022-08-21T07:14:47.082Z,19.11
2022-08-21T07:15:47.046Z,19.14
2022-08-21T07:16:47.056Z,19.18
2022-08-21T07:17:47.029Z,19.23
2022-08-21T07:18:47.019Z,19.28
2022-08-21T07:19:47.013Z,19.31
2022-08-21T07:20:47.009Z,19.32
2022-08-21T07:21:46.971Z,19.40
2022-08-21T07:22:47.613Z,19.46
2022-08-21T07:23:46.962Z,19.47
2022-08-21T07:24:46.965Z,19.50
2022-08-21T07:25:46.955Z,19.54
2022-08-21T07:26:46.913Z,19.57
2022-08-21T07:27:46.906Z,19.54
2022-08-21T07:28:47.238Z,19.58
2022-08-21T07:29:47.845Z,19.63
2022-08-21T07:30:46.862Z,19.69
2022-08-21T07:31:46.849Z,19.73
2022-08-21T07:32:46.901Z,19.72
2022-08-21T07:33:46.877Z,19.78
2022-08-21T07:34:46.839Z,19.80
2022-08-21T07:35:46.809Z,19.86
2022-08-21T07:36:46.783Z,19.90
2022-08-21T07:37:46.843Z,19.97
2022-08-21T07:38:47.150Z,19.98
2022-08-21T07:39:46.804Z,20.00
2022-08-21T07:40:46.733Z,20.00
2022-08-21T07:41:46.781Z,20.05
2022-08-21T07:42:46.705Z,20.06
2022-08-21T07:43:46.703Z,20.10
2022-08-21T07:44:46.715Z,20.15
2022-08-21T07:45:46.683Z,20.24
2022-08-21T07:46:46.691Z,20.23
2022-08-21T07:47:46.626Z,20.20
2022-08-21T07:48:46.633Z,20.20
2022-08-21T07:49:46.895Z,20.15
2022-08-21T07:50:47.552Z,20.18
2022-08-21T07:51:46.622Z,20.20
2022-08-21T07:52:46.571Z,20.23
2022-08-21T07:53:46.546Z,20.20
2022-08-21T07:54:46.551Z,20.18
2022-08-21T07:55:46.518Z,20.18
2022-08-21T07:56:46.532Z,20.21
2022-08-21T07:57:46.497Z,20.27
2022-08-21T07:58:46.530Z,20.28
2022-08-21T07:59:46.507Z,20.25
2022-08-21T08:00:46.541Z,20.23
2022-08-21T08:01:46.566Z,20.21
2022-08-21T08:02:46.445Z,20.16
2022-08-21T08:03:46.421Z,20.20
2022-08-21T08:04:50.630Z,20.21
2022-08-21T08:05:46.454Z,20.24
2022-08-21T08:06:46.373Z,20.30
2022-08-21T08:07:46.376Z,20.31
2022-08-21T08:08:46.348Z,20.34
2022-08-21T08:09:46.363Z,20.41
2022-08-21T08:10:46.366Z,20.46
2022-08-21T08:11:46.329Z,20.43
2022-08-21T08:12:46.289Z,20.46
2022-08-21T08:13:46.293Z,20.47
2022-08-21T08:14:46.329Z,20.46
2022-08-21T08:15:46.268Z,20.43
2022-08-21T08:16:46.250Z,20.47
2022-08-21T08:17:46.256Z,20.50
2022-08-21T08:18:46.227Z,20.51
2022-08-21T08:19:46.228Z,20.58
2022-08-21T08:20:46.207Z,20.62
2022-08-21T08:21:46.189Z,20.59
2022-08-21T08:22:50.119Z,20.61
2022-08-21T08:23:46.163Z,20.65
2022-08-21T08:24:46.150Z,20.69
2022-08-21T08:25:46.128Z,20.74
2022-08-21T08:26:46.180Z,20.74
2022-08-21T08:27:47.106Z,20.80
2022-08-21T08:28:46.101Z,20.81
2022-08-21T08:29:46.087Z,20.87
2022-08-21T08:30:46.068Z,20.89
2022-08-21T08:31:46.066Z,20.84
2022-08-21T08:32:46.067Z,20.86
2022-08-21T08:33:46.028Z,20.91
2022-08-21T08:34:46.032Z,21.04
2022-08-21T08:35:46.028Z,21.09
2022-08-21T08:36:45.992Z,21.14
2022-08-21T08:37:45.986Z,21.14
2022-08-21T08:38:46.990Z,21.20
2022-08-21T08:39:46.051Z,21.30
2022-08-21T08:40:46.273Z,21.38
2022-08-21T08:41:45.925Z,21.46
2022-08-21T08:42:45.911Z,21.50
2022-08-21T08:43:45.894Z,21.46
2022-08-21T08:44:45.881Z,21.46
2022-08-21T08:45:46.198Z,21.44
2022-08-21T08:46:46.123Z,21.44
2022-08-21T08:47:45.836Z,21.53
2022-08-21T08:48:50.636Z,21.59
2022-08-21T08:49:46.850Z,21.64
2022-08-21T08:50:45.815Z,21.67
2022-08-21T08:51:45.797Z,21.71
2022-08-21T08:52:45.833Z,21.61
2022-08-21T08:53:45.766Z,21.63
2022-08-21T08:54:45.942Z,21.67
2022-08-21T08:55:45.940Z,21.69
2022-08-21T08:56:45.775Z,21.72
2022-08-21T08:57:45.767Z,21.81
2022-08-21T08:58:45.694Z,21.94
2022-08-21T08:59:45.731Z,21.94
2022-08-21T09:00:45.772Z,21.97
2022-08-21T09:01:45.679Z,22.06
2022-08-21T09:02:45.668Z,22.02
2022-08-21T09:03:45.913Z,22.06
2022-08-21T09:04:45.673Z,22.13
2022-08-21T09:05:45.603Z,22.14
2022-08-21T09:06:45.590Z,22.22
2022-08-21T09:07:45.593Z,22.29
2022-08-21T09:08:45.584Z,22.37
2022-08-21T09:09:45.553Z,22.46
2022-08-21T09:10:46.288Z,22.53
2022-08-21T09:11:45.543Z,22.60
2022-08-21T09:12:45.506Z,22.68
2022-08-21T09:13:45.498Z,22.84
2022-08-21T09:14:45.507Z,22.97
2022-08-21T09:15:45.541Z,23.05
2022-08-21T09:16:45.472Z,22.97
2022-08-21T09:17:45.446Z,22.99
2022-08-21T09:18:45.482Z,22.93
2022-08-21T09:19:45.471Z,22.89
2022-08-21T09:20:45.410Z,22.80
2022-08-21T09:21:45.385Z,22.93
2022-08-21T09:22:45.457Z,23.02
2022-08-21T09:23:45.374Z,23.14
2022-08-21T09:24:47.870Z,23.08
2022-08-21T09:25:46.381Z,23.07
2022-08-21T09:26:45.347Z,23.09
2022-08-21T09:27:45.342Z,23.20
2022-08-21T09:28:45.319Z,23.19
2022-08-21T09:29:45.309Z,23.26
2022-08-21T09:30:45.309Z,23.39
2022-08-21T09:31:45.281Z,23.47
2022-08-21T09:32:45.242Z,23.57
2022-08-21T09:33:45.235Z,23.71
2022-08-21T09:34:45.235Z,23.71
2022-08-21T09:35:45.533Z,23.58
2022-08-21T09:36:45.206Z,23.55
2022-08-21T09:37:45.201Z,23.53
2022-08-21T09:38:45.165Z,23.60
2022-08-21T09:39:48.926Z,23.62
2022-08-21T09:40:46.102Z,23.64
2022-08-21T09:41:45.758Z,23.71
2022-08-21T09:42:45.164Z,23.82
2022-08-21T09:43:45.102Z,23.80
2022-08-21T09:44:45.141Z,23.77
2022-08-21T09:45:45.064Z,23.90
2022-08-21T09:46:45.102Z,23.90
2022-08-21T09:47:45.136Z,24.04
2022-08-21T09:48:46.341Z,24.14
2022-08-21T09:49:45.310Z,24.29
2022-08-21T09:50:45.042Z,24.44
2022-08-21T09:51:45.035Z,24.17
2022-08-21T09:52:45.006Z,23.98
2022-08-21T09:53:44.967Z,24.04
2022-08-21T09:54:44.982Z,24.08
2022-08-21T09:55:44.966Z,24.05
2022-08-21T09:56:44.939Z,24.14
2022-08-21T09:57:46.831Z,24.17
2022-08-21T09:58:45.940Z,24.08
2022-08-21T09:59:44.902Z,23.97
2022-08-21T10:00:45.066Z,23.90
2022-08-21T10:01:45.139Z,24.08
2022-08-21T10:02:44.857Z,24.19
2022-08-21T10:03:44.855Z,24.39
2022-08-21T10:04:44.840Z,24.52
2022-08-21T10:05:48.997Z,24.69
2022-08-21T10:06:44.877Z,24.80
2022-08-21T10:07:44.823Z,24.69
2022-08-21T10:08:44.808Z,24.67
2022-08-21T10:09:44.801Z,24.68
2022-08-21T10:10:44.790Z,24.73
2022-08-21T10:11:44.742Z,24.75
2022-08-21T10:12:44.734Z,24.83
2022-08-21T10:13:44.721Z,25.00
2022-08-21T10:14:44.723Z,25.16
2022-08-21T10:15:44.724Z,25.32
2022-08-21T10:16:44.709Z,25.39
2022-08-21T10:17:44.664Z,25.19
2022-08-21T10:18:44.654Z,24.97
2022-08-21T10:19:44.646Z,25.02
2022-08-21T10:20:44.640Z,25.01
2022-08-21T10:21:44.605Z,24.95
2022-08-21T10:22:44.647Z,24.83
2022-08-21T10:23:44.586Z,24.63
2022-08-21T10:24:44.573Z,24.38
2022-08-21T10:25:50.459Z,24.07
2022-08-21T10:26:45.549Z,23.71
2022-08-21T10:27:44.581Z,23.35
2022-08-21T10:28:44.520Z,23.19
2022-08-21T10:29:44.802Z,22.97
2022-08-21T10:30:44.516Z,22.87
2022-08-21T10:31:44.931Z,22.84
2022-08-21T10:32:44.500Z,22.87
2022-08-21T10:33:44.459Z,23.15
2022-08-21T10:34:44.436Z,23.47
2022-08-21T10:35:44.439Z,23.82
2022-08-21T10:36:44.425Z,24.23
2022-08-21T10:37:44.442Z,24.61
2022-08-21T10:39:02.292Z,24.92
2022-08-21T10:39:46.338Z,25.10
2022-08-21T10:40:44.402Z,25.30
2022-08-21T10:41:44.356Z,25.17
2022-08-21T10:42:44.457Z,24.75
2022-08-21T10:43:44.358Z,24.41
2022-08-21T10:44:44.325Z,24.24
2022-08-21T10:45:44.310Z,24.45
2022-08-21T10:46:44.277Z,24.64
2022-08-21T10:47:44.319Z,24.71
2022-08-21T10:48:44.292Z,24.77
2022-08-21T10:49:48.355Z,24.80
2022-08-21T10:50:44.353Z,24.97
2022-08-21T10:51:46.532Z,25.17
2022-08-21T10:52:45.085Z,25.35
2022-08-21T10:53:44.247Z,25.15
2022-08-21T10:54:44.183Z,25.16
2022-08-21T10:55:44.395Z,25.38
2022-08-21T10:56:44.188Z,25.53
2022-08-21T10:57:44.141Z,25.75
2022-08-21T10:58:44.806Z,25.89
2022-08-21T10:59:44.121Z,25.87
2022-08-21T11:00:44.236Z,25.83
2022-08-21T11:01:44.087Z,25.89
2022-08-21T11:02:44.073Z,26.04
2022-08-21T11:03:44.336Z,26.20
2022-08-21T11:04:49.497Z,26.02
2022-08-21T11:05:50.145Z,25.65
2022-08-21T11:06:45.059Z,25.67
2022-08-21T11:07:44.072Z,25.61
2022-08-21T11:08:44.071Z,25.50
2022-08-21T11:09:44.023Z,25.53
2022-08-21T11:10:57.664Z,25.72
2022-08-21T11:11:50.156Z,25.90
2022-08-21T11:12:44.957Z,26.02
2022-08-21T11:13:44.013Z,26.01
2022-08-21T11:14:49.876Z,25.86
2022-08-21T11:15:46.679Z,25.47
2022-08-21T11:16:43.958Z,25.22
2022-08-21T11:17:43.938Z,24.85
2022-08-21T11:18:46.382Z,24.76
2022-08-21T11:19:43.858Z,24.64
2022-08-21T11:20:44.296Z,24.52
2022-08-21T11:21:43.833Z,24.42
2022-08-21T11:22:43.805Z,24.47
2022-08-21T11:23:43.875Z,24.73
2022-08-21T11:24:43.864Z,25.13
2022-08-21T11:25:44.026Z,25.59
2022-08-21T11:26:43.790Z,26.04
2022-08-21T11:27:43.787Z,26.31
2022-08-21T11:28:43.723Z,26.40
2022-08-21T11:29:43.734Z,26.52
2022-08-21T11:30:43.726Z,26.54
2022-08-21T11:31:43.696Z,26.27
2022-08-21T11:32:43.756Z,26.15
2022-08-21T11:33:43.673Z,26.29
2022-08-21T11:34:43.674Z,26.32
2022-08-21T11:35:46.489Z,26.57
2022-08-21T11:36:47.122Z,26.62
2022-08-21T11:37:48.642Z,26.54
2022-08-21T11:38:43.645Z,26.50
2022-08-21T11:39:43.709Z,26.62
2022-08-21T11:40:43.657Z,26.68
2022-08-21T11:41:44.323Z,26.62
2022-08-21T11:42:43.553Z,26.39
2022-08-21T11:43:43.571Z,26.20
2022-08-21T11:44:43.902Z,26.02
2022-08-21T11:45:43.541Z,25.94
2022-08-21T11:46:43.554Z,25.84
2022-08-21T11:47:43.565Z,25.50
2022-08-21T11:48:43.489Z,25.30
2022-08-21T11:49:43.541Z,25.16
2022-08-21T11:50:43.535Z,25.17
2022-08-21T11:51:43.456Z,25.30
2022-08-21T11:52:43.561Z,25.59
2022-08-21T11:53:43.426Z,25.86
2022-08-21T11:54:43.581Z,26.12
2022-08-21T11:55:47.414Z,26.32
2022-08-21T11:56:43.394Z,26.58
2022-08-21T11:57:43.575Z,26.74
2022-08-21T11:58:43.389Z,26.83
2022-08-21T11:59:45.528Z,26.81
2022-08-21T12:00:43.357Z,26.62
2022-08-21T12:01:43.573Z,26.79
2022-08-21T12:02:43.287Z,27.14
2022-08-21T12:03:43.275Z,27.61
2022-08-21T12:04:43.261Z,27.96
2022-08-21T12:05:46.010Z,28.16
2022-08-21T12:06:43.255Z,28.41
2022-08-21T12:07:43.223Z,28.53
2022-08-21T12:08:49.910Z,28.69
2022-08-21T12:10:04.250Z,28.85
2022-08-21T12:10:57.736Z,28.60
2022-08-21T12:11:43.218Z,28.50
2022-08-21T12:12:43.164Z,28.14
2022-08-21T12:13:43.151Z,28.23
2022-08-21T12:14:43.147Z,28.54
2022-08-21T12:15:43.159Z,28.70
2022-08-21T12:16:43.203Z,28.68
2022-08-21T12:17:43.132Z,28.82
2022-08-21T12:18:43.101Z,29.13
2022-08-21T12:19:43.075Z,29.20
2022-08-21T12:20:45.094Z,29.31
2022-08-21T12:21:44.424Z,29.23
2022-08-21T12:22:43.077Z,28.96
2022-08-21T12:23:43.053Z,29.06
2022-08-21T12:24:43.009Z,29.22
2022-08-21T12:25:43.022Z,29.31
2022-08-21T12:26:43.002Z,29.20
2022-08-21T12:27:43.019Z,29.06
2022-08-21T12:28:42.962Z,29.06
2022-08-21T12:29:42.958Z,28.95
2022-08-21T12:30:42.957Z,29.08
2022-08-21T12:31:42.969Z,29.43
2022-08-21T12:32:42.906Z,29.52
2022-08-21T12:33:42.914Z,29.47
2022-08-21T12:34:42.964Z,29.52
2022-08-21T12:35:42.888Z,29.29
2022-08-21T12:36:42.887Z,29.03
2022-08-21T12:37:42.988Z,28.96
2022-08-21T12:38:42.842Z,29.26
2022-08-21T12:39:42.853Z,29.41
2022-08-21T12:40:42.930Z,29.29
2022-08-21T12:41:42.828Z,29.47
2022-08-21T12:42:42.813Z,29.49
2022-08-21T12:43:42.859Z,28.88
2022-08-21T12:44:42.770Z,28.80
2022-08-21T12:45:42.760Z,28.70
2022-08-21T12:46:42.773Z,28.44
2022-08-21T12:47:42.737Z,28.25
2022-08-21T12:48:42.733Z,28.50
2022-08-21T12:49:42.710Z,28.59
2022-08-21T12:50:42.700Z,29.16
2022-08-21T12:51:43.736Z,29.74
2022-08-21T12:52:42.662Z,30.27